Time;durP1;ratioP1;P1;durP2;ratioP2;P2;SDS_P1;SDS_P2;PMS_P1;PMS_P2;Temp;Humidity;BMP_temperature;BMP_pressure;BME280_temperature;BME280_humidity;BME280_pressure;Samples;Min_cycle;Max_cycle;Signal;HPM_P1;HPM_P2
2022/07/15 00:01:15;;;;;;;3.1;7.8;;;;;;;16.7;100;98240;;;;
2022/07/15 00:11:15;;;;;;;2.8;4.5;;;;;;;16.7;100;98200;;;;
2022/07/15 00:21:15;;;;;;;2.8;4.5;;;;;;;16.8;100;98260;;;;
2022/07/15 00:32:15;;;;;;;2.8;4.5;;;;;;;16.8;100;98240;;;;
2022/07/15 00:43:16;;;;;;;2.2;4.9;;;;;;;16.8;100;98250;;;;
2022/07/15 00:53:16;;;;;;;2.2;4.9;;;;;;;16.8;100;98250;;;;
2022/07/15 01:04:15;;;;;;;2.2;4.9;;;;;;;16.5;100;98250;;;;
2022/07/15 01:15:15;;;;;;;2.2;4.4;;;;;;;16.4;100;98250;;;;
2022/07/15 01:25:15;;;;;;;2.2;4.4;;;;;;;16.5;100;98250;;;;
2022/07/15 01:36:15;;;;;;;2.2;4.4;;;;;;;16.5;100;98240;;;;
2022/07/15 01:46:15;;;;;;;2.3;4.4;;;;;;;16.5;100;98240;;;;
2022/07/15 01:57:15;;;;;;;2.3;4.4;;;;;;;16.5;100;98250;;;;
2022/07/15 02:08:15;;;;;;;1.8;4.1;;;;;;;16.4;100;98250;;;;
2022/07/15 02:18:15;;;;;;;1.8;4.1;;;;;;;16.2;100;98260;;;;
2022/07/15 02:29:15;;;;;;;1.8;4.1;;;;;;;16;100;98280;;;;
2022/07/15 02:39:15;;;;;;;2.5;5.8;;;;;;;15.9;100;98290;;;;
2022/07/15 02:50:15;;;;;;;2.5;5.8;;;;;;;16;100;98290;;;;
2022/07/15 03:00:17;;;;;;;2.5;5.8;;;;;;;15.9;100;98300;;;;
2022/07/15 03:10:16;;;;;;;3.1;4.9;;;;;;;16;100;98310;;;;
2022/07/15 03:21:15;;;;;;;3.1;4.9;;;;;;;16.1;100;98320;;;;
2022/07/15 03:32:15;;;;;;;3.1;4.9;;;;;;;16.1;100;98330;;;;
2022/07/15 03:42:15;;;;;;;5.2;8.2;;;;;;;16.3;100;98350;;;;
2022/07/15 03:53:15;;;;;;;5.2;8.2;;;;;;;16.5;100;98360;;;;
2022/07/15 04:04:15;;;;;;;5.2;8.2;;;;;;;16.7;100;98360;;;;
2022/07/15 04:14:17;;;;;;;6;11.3;;;;;;;16.7;100;98370;;;;
2022/07/15 04:25:15;;;;;;;6;11.3;;;;;;;16.9;100;98380;;;;
2022/07/15 04:36:15;;;;;;;6;11.3;;;;;;;16.9;100;98410;;;;
2022/07/15 04:46:15;;;;;;;8.7;12.6;;;;;;;17.3;100;98430;;;;
2022/07/15 04:57:15;;;;;;;8.7;12.6;;;;;;;17.3;100;98460;;;;
2022/07/15 05:08:15;;;;;;;12.6;15.1;;;;;;;17.1;100;98480;;;;
2022/07/15 05:19:15;;;;;;;12.6;15.1;;;;;;;17.6;100;98500;;;;
2022/07/15 05:30:16;;;;;;;12.6;15.1;;;;;;;17.4;100;98520;;;;
2022/07/15 05:40:16;;;;;;;11.8;17.1;;;;;;;17.5;100;98530;;;;
2022/07/15 05:51:15;;;;;;;11.8;17.1;;;;;;;17.6;100;98550;;;;
2022/07/15 06:02:15;;;;;;;11.8;17.1;;;;;;;17.9;100;98560;;;;
2022/07/15 06:13:15;;;;;;;8.9;13.8;;;;;;;17.7;100;98580;;;;
2022/07/15 06:23:15;;;;;;;8.9;13.8;;;;;;;17.8;100;98580;;;;
2022/07/15 06:33:15;;;;;;;8.9;13.8;;;;;;;18;100;98590;;;;
2022/07/15 06:44:16;;;;;;;6.4;10.6;;;;;;;18.4;100;98600;;;;
2022/07/15 06:55:15;;;;;;;6.4;10.6;;;;;;;18.7;100;98620;;;;
2022/07/15 07:05:15;;;;;;;6.4;10.6;;;;;;;19.1;100;98620;;;;
2022/07/15 07:16:15;;;;;;;3.9;9;;;;;;;19.2;100;98630;;;;
2022/07/15 07:26:15;;;;;;;3.9;9;;;;;;;19.2;100;98640;;;;
2022/07/15 07:37:16;;;;;;;3.3;8.8;;;;;;;20;100;98650;;;;
2022/07/15 07:48:16;;;;;;;3.3;8.8;;;;;;;19.4;100;98660;;;;
2022/07/15 07:58:16;;;;;;;3.3;8.8;;;;;;;20;100;98660;;;;
2022/07/15 08:09:16;;;;;;;3.2;6.9;;;;;;;20.3;100;98680;;;;
2022/07/15 08:19:16;;;;;;;3.2;6.9;;;;;;;20.2;100;98680;;;;
2022/07/15 08:29:15;;;;;;;3.2;6.9;;;;;;;20.4;100;98700;;;;
2022/07/15 08:39:15;;;;;;;2.6;5.4;;;;;;;20.3;100;98700;;;;
2022/07/15 08:50:15;;;;;;;2.6;5.4;;;;;;;20.7;100;98710;;;;
2022/07/15 09:00:16;;;;;;;2.6;5.4;;;;;;;20.7;100;98720;;;;
2022/07/15 09:11:15;;;;;;;2.4;5.5;;;;;;;20.7;100;98720;;;;
2022/07/15 09:22:15;;;;;;;2.4;5.5;;;;;;;21.1;100;98720;;;;
2022/07/15 09:43:15;;;;;;;2.6;5.4;;;;;;;20.8;100;98720;;;;
2022/07/15 09:53:16;;;;;;;2.6;5.4;;;;;;;21.1;100;98720;;;;
2022/07/15 10:04:15;;;;;;;2.6;5.4;;;;;;;21.4;100;98730;;;;
2022/07/15 10:15:16;;;;;;;2.1;5.5;;;;;;;22.1;96.9;98720;;;;
2022/07/15 10:25:16;;;;;;;2.1;5.5;;;;;;;21.4;94.8;98730;;;;
2022/07/15 10:36:15;;;;;;;2.1;5.5;;;;;;;21.2;99.7;98730;;;;
2022/07/15 10:46:15;;;;;;;1.5;5.8;;;;;;;21.1;96.8;98730;;;;
2022/07/15 10:56:17;;;;;;;1.5;5.8;;;;;;;21.4;94.6;98730;;;;
2022/07/15 11:06:15;;;;;;;1.5;5.8;;;;;;;21.5;97.3;98740;;;;
2022/07/15 11:17:17;;;;;;;1.5;3.9;;;;;;;21.2;91.2;98730;;;;
2022/07/15 11:27:16;;;;;;;1.5;3.9;;;;;;;22.3;92.2;98730;;;;
2022/07/15 11:38:15;;;;;;;1.5;4.1;;;;;;;21.8;92.5;98740;;;;
2022/07/15 11:48:15;;;;;;;1.5;4.1;;;;;;;22.1;89.7;98740;;;;
2022/07/15 11:58:16;;;;;;;1.5;4.1;;;;;;;21.9;89;98750;;;;
2022/07/15 12:09:15;;;;;;;1.4;3.3;;;;;;;21.9;90.3;98740;;;;
2022/07/15 12:19:16;;;;;;;1.4;3.3;;;;;;;22;89.5;98750;;;;
2022/07/15 12:30:16;;;;;;;1.4;3.3;;;;;;;21.9;87.4;98750;;;;
2022/07/15 12:41:16;;;;;;;1.1;6.2;;;;;;;22.5;81.2;98740;;;;
2022/07/15 12:52:16;;;;;;;1.1;6.2;;;;;;;22.4;82.5;98740;;;;
2022/07/15 13:03:15;;;;;;;1.1;6.2;;;;;;;21.7;82.5;98750;;;;
2022/07/15 13:13:15;;;;;;;0.9;2.9;;;;;;;22.2;82.3;98740;;;;
2022/07/15 13:23:15;;;;;;;0.9;2.9;;;;;;;22;82.6;98740;;;;
2022/07/15 13:33:16;;;;;;;0.9;2.9;;;;;;;21.9;79.4;98740;;;;
2022/07/15 13:44:16;;;;;;;1.2;3.9;;;;;;;22.3;71.4;98750;;;;
2022/07/15 13:54:16;;;;;;;1.2;3.9;;;;;;;22.1;69;98740;;;;
2022/07/15 14:05:15;;;;;;;1.2;3.9;;;;;;;22.6;71.6;98750;;;;
2022/07/15 14:15:15;;;;;;;1.3;3.5;;;;;;;22.4;71.9;98750;;;;
2022/07/15 14:25:15;;;;;;;1.3;3.5;;;;;;;21.9;72.2;98750;;;;
2022/07/15 14:35:15;;;;;;;1.3;3.5;;;;;;;22.5;69.8;98740;;;;
2022/07/15 14:46:15;;;;;;;1.2;4;;;;;;;23.2;71.6;98740;;;;
2022/07/15 14:56:16;;;;;;;1.2;4;;;;;;;22.5;68.5;98740;;;;
2022/07/15 15:06:15;;;;;;;1.2;4;;;;;;;23.5;68.1;98740;;;;
2022/07/15 15:17:15;;;;;;;1.6;5;;;;;;;26.2;55.2;98750;;;;
2022/07/15 15:27:16;;;;;;;1.6;5;;;;;;;27.4;51.9;98750;;;;
2022/07/15 15:38:15;;;;;;;1.2;3.2;;;;;;;25.7;55.5;98750;;;;
2022/07/15 15:49:16;;;;;;;1.2;3.2;;;;;;;23.8;57.5;98750;;;;
2022/07/15 15:59:15;;;;;;;1.2;3.2;;;;;;;26.3;53.7;98760;;;;
2022/07/15 16:10:15;;;;;;;1.4;3.5;;;;;;;25.7;50.3;98750;;;;
2022/07/15 16:22:51;;;;;;;1.4;3.5;;;;;;;24.8;52.3;98750;;;;
2022/07/15 16:31:16;;;;;;;1.4;3.5;;;;;;;26.4;49.3;98760;;;;
2022/07/15 16:42:15;;;;;;;1.1;3.7;;;;;;;28.4;45.4;98770;;;;
2022/07/15 16:52:16;;;;;;;1.1;3.7;;;;;;;27.2;47.2;98760;;;;
2022/07/15 17:03:16;;;;;;;1.1;3.7;;;;;;;24.3;51.8;98750;;;;
2022/07/15 17:13:16;;;;;;;1.1;3.7;;;;;;;22.8;58.5;98750;;;;
2022/07/15 17:24:16;;;;;;;1.1;3.7;;;;;;;21.6;64;98760;;;;
2022/07/15 17:35:15;;;;;;;1.1;3.7;;;;;;;20.9;66.7;98750;;;;
2022/07/15 17:45:15;;;;;;;1.3;3.5;;;;;;;22.1;63.1;98760;;;;
2022/07/15 17:55:16;;;;;;;1.3;3.5;;;;;;;23.8;55.8;98760;;;;
2022/07/15 18:05:16;;;;;;;1.3;3.5;;;;;;;22.6;59;98760;;;;
2022/07/15 18:16:16;;;;;;;1.2;3;;;;;;;20.4;65.2;98760;;;;
2022/07/15 18:26:16;;;;;;;1.2;3;;;;;;;19.1;70.9;98770;;;;
2022/07/15 18:37:16;;;;;;;1.2;3;;;;;;;18.3;73.3;98780;;;;
2022/07/15 18:48:16;;;;;;;1.9;4.2;;;;;;;17.4;83.6;98800;;;;
2022/07/15 18:59:16;;;;;;;1.9;4.2;;;;;;;16.6;85.9;98820;;;;
2022/07/15 19:09:16;;;;;;;9.7;17.7;;;;;;;16.2;89.9;98830;;;;
2022/07/15 19:19:16;;;;;;;9.7;17.7;;;;;;;15.9;98.1;98830;;;;
2022/07/15 19:29:16;;;;;;;9.7;17.7;;;;;;;15.6;99.2;98830;;;;
2022/07/15 19:39:16;;;;;;;4.5;9.7;;;;;;;15.3;100;98840;;;;
2022/07/15 19:50:16;;;;;;;4.5;9.7;;;;;;;15;100;98840;;;;
2022/07/15 20:00:16;;;;;;;4.5;9.7;;;;;;;14.7;100;98840;;;;
2022/07/15 20:11:16;;;;;;;3;6.3;;;;;;;14.3;100;98840;;;;
2022/07/15 20:21:16;;;;;;;3;6.3;;;;;;;14;100;98840;;;;
2022/07/15 20:31:16;;;;;;;3;6.3;;;;;;;13.7;100;98860;;;;
2022/07/15 20:41:16;;;;;;;6.4;11;;;;;;;13.7;100;98850;;;;
2022/07/15 20:51:16;;;;;;;6.4;11;;;;;;;13.8;100;98860;;;;
2022/07/15 21:01:16;;;;;;;6.4;11;;;;;;;13.9;100;98870;;;;
2022/07/15 21:11:16;;;;;;;5.9;8.3;;;;;;;14;100;98870;;;;
2022/07/15 21:21:16;;;;;;;5.9;8.3;;;;;;;14.2;100;98860;;;;
2022/07/15 21:31:16;;;;;;;5.9;8.3;;;;;;;14.4;100;98870;;;;
2022/07/15 21:42:16;;;;;;;4.4;7.8;;;;;;;14.4;100;98870;;;;
2022/07/15 21:52:16;;;;;;;4.4;7.8;;;;;;;14.4;100;98870;;;;
2022/07/15 22:02:16;;;;;;;4.4;7.8;;;;;;;14.4;100;98880;;;;
2022/07/15 22:12:16;;;;;;;3;6.4;;;;;;;14.4;100;98880;;;;
2022/07/15 22:23:16;;;;;;;3;6.4;;;;;;;14.4;100;98880;;;;
2022/07/15 22:33:16;;;;;;;3;6.4;;;;;;;14.5;100;98880;;;;
2022/07/15 22:44:16;;;;;;;2.7;5.3;;;;;;;14.5;100;98880;;;;
2022/07/15 22:54:16;;;;;;;2.7;5.3;;;;;;;14.2;100;98880;;;;
2022/07/15 23:04:16;;;;;;;2.7;5.3;;;;;;;14.1;100;98880;;;;
2022/07/15 23:14:16;;;;;;;3.1;5.8;;;;;;;14.1;100;98880;;;;
2022/07/15 23:25:16;;;;;;;3.1;5.8;;;;;;;14;100;98890;;;;
2022/07/15 23:36:16;;;;;;;3.1;5.8;;;;;;;13.9;100;98890;;;;
2022/07/15 23:46:16;;;;;;;5.9;7.7;;;;;;;13.7;100;98880;;;;
2022/07/15 23:57:16;;;;;;;5.9;7.7;;;;;;;13.5;100;98880;;;;
